createdAt,value
2016-07-26T00:00:21.604Z,21.43
2016-07-26T00:01:21.585Z,21.4
2016-07-26T00:02:21.571Z,21.45
2016-07-26T00:03:21.552Z,21.4
2016-07-26T00:04:21.537Z,21.43
2016-07-26T00:05:21.519Z,21.42
2016-07-26T00:06:21.502Z,21.4
2016-07-26T00:07:21.487Z,21.39
2016-07-26T00:08:21.469Z,21.43
2016-07-26T00:09:21.454Z,21.45
2016-07-26T00:10:21.436Z,21.45
2016-07-26T00:11:21.419Z,21.36
2016-07-26T00:12:21.401Z,21.43
2016-07-26T00:13:21.383Z,21.42
2016-07-26T00:14:21.366Z,21.42
2016-07-26T00:15:21.354Z,21.36
2016-07-26T00:16:21.335Z,21.3
2016-07-26T00:17:21.319Z,21.29
2016-07-26T00:18:21.305Z,21.17
2016-07-26T00:19:21.283Z,21.25
2016-07-26T00:20:21.280Z,21.21
2016-07-26T00:21:21.250Z,21.21
2016-07-26T00:22:21.232Z,21.17
2016-07-26T00:23:21.215Z,21.11
2016-07-26T00:24:21.196Z,21.09
2016-07-26T00:25:21.181Z,21.06
2016-07-26T00:26:21.163Z,21.05
2016-07-26T00:27:21.150Z,20.99
2016-07-26T00:28:21.131Z,21.02
2016-07-26T00:29:21.113Z,21.02
2016-07-26T00:30:21.098Z,20.99
2016-07-26T00:31:21.078Z,21.05
2016-07-26T00:32:21.060Z,21.11
2016-07-26T00:33:21.042Z,21.11
2016-07-26T00:34:21.030Z,21.14
2016-07-26T00:35:21.011Z,21.11
2016-07-26T00:36:20.994Z,21.07
2016-07-26T00:37:20.991Z,21.09
2016-07-26T00:38:20.959Z,21.11
2016-07-26T00:39:20.944Z,21.06
2016-07-26T00:40:20.927Z,21.09
2016-07-26T00:41:20.911Z,21.07
2016-07-26T00:42:20.890Z,21.07
2016-07-26T00:43:20.875Z,21.02
2016-07-26T00:44:20.853Z,21.11
2016-07-26T00:45:20.840Z,21.05
2016-07-26T00:46:20.824Z,21.09
2016-07-26T00:47:20.807Z,21.09
2016-07-26T00:48:20.789Z,21.05
2016-07-26T00:49:20.772Z,21.09
2016-07-26T00:50:20.754Z,21.14
2016-07-26T00:51:20.750Z,21.12
2016-07-26T00:52:20.723Z,21.15
2016-07-26T00:53:20.701Z,21.15
2016-07-26T00:54:20.700Z,21.2
2016-07-26T00:55:20.675Z,21.17
2016-07-26T00:56:20.653Z,21.15
2016-07-26T00:57:20.636Z,21.05
2016-07-26T00:58:20.623Z,21.06
2016-07-26T00:59:20.601Z,21.05
2016-07-26T01:00:20.582Z,20.93
2016-07-26T01:01:20.568Z,20.93
2016-07-26T01:02:20.549Z,20.62
2016-07-26T01:03:20.533Z,20.47
2016-07-26T01:04:20.517Z,20.26
2016-07-26T01:05:20.497Z,20.09
2016-07-26T01:06:20.480Z,20
2016-07-26T01:07:20.463Z,19.96
2016-07-26T01:08:20.447Z,19.89
2016-07-26T01:09:20.427Z,19.76
2016-07-26T01:10:20.415Z,19.81
2016-07-26T01:11:20.398Z,19.76
2016-07-26T01:12:20.374Z,19.64
2016-07-26T01:13:20.358Z,19.67
2016-07-26T01:14:20.339Z,19.47
2016-07-26T01:15:20.324Z,19.49
2016-07-26T01:16:20.302Z,19.51
2016-07-26T01:17:20.288Z,19.47
2016-07-26T01:18:20.268Z,19.49
2016-07-26T01:19:20.251Z,19.36
2016-07-26T01:20:20.233Z,19.27
2016-07-26T01:21:20.214Z,19.33
2016-07-26T01:22:20.195Z,19.22
2016-07-26T01:23:20.177Z,19.21
2016-07-26T01:24:20.168Z,19.22
2016-07-26T01:25:20.148Z,19.16
2016-07-26T01:26:20.124Z,19.09
2016-07-26T01:27:20.106Z,19.04
2016-07-26T01:28:20.088Z,18.93
2016-07-26T01:29:20.069Z,19.02
2016-07-26T01:30:20.050Z,18.95
2016-07-26T01:31:20.033Z,18.96
2016-07-26T01:32:20.704Z,18.89
2016-07-26T01:33:19.995Z,18.88
2016-07-26T01:34:19.974Z,18.84
2016-07-26T01:35:20.007Z,18.83
2016-07-26T01:36:19.938Z,18.88
2016-07-26T01:37:19.919Z,18.89
2016-07-26T01:38:19.904Z,18.84
2016-07-26T01:39:19.883Z,18.84
2016-07-26T01:40:19.867Z,18.88
2016-07-26T01:41:19.847Z,18.89
2016-07-26T01:42:19.824Z,18.89
2016-07-26T01:43:19.810Z,18.84
2016-07-26T01:44:19.786Z,18.86
2016-07-26T01:45:19.772Z,18.81
2016-07-26T01:46:19.755Z,18.8
2016-07-26T01:47:19.729Z,18.78
2016-07-26T01:48:19.715Z,18.84
2016-07-26T01:49:19.692Z,18.74
2016-07-26T01:50:19.677Z,18.83
2016-07-26T01:51:19.658Z,18.8
2016-07-26T01:52:19.639Z,18.78
2016-07-26T01:53:19.620Z,18.71
2016-07-26T01:54:19.599Z,18.75
2016-07-26T01:55:19.580Z,18.71
2016-07-26T01:56:19.559Z,18.77
2016-07-26T01:57:19.542Z,18.73
2016-07-26T01:58:19.524Z,18.74
2016-07-26T01:59:19.508Z,18.81
2016-07-26T02:00:19.487Z,18.7
2016-07-26T02:01:19.470Z,18.74
2016-07-26T02:02:19.448Z,18.77
2016-07-26T02:03:19.431Z,18.8
2016-07-26T02:04:19.409Z,18.75
2016-07-26T02:05:19.396Z,18.71
2016-07-26T02:06:19.368Z,18.77
2016-07-26T02:07:19.354Z,18.73
2016-07-26T02:08:19.338Z,18.73
2016-07-26T02:09:19.423Z,18.8
2016-07-26T02:10:19.301Z,18.78
2016-07-26T02:11:19.281Z,18.71
2016-07-26T02:12:19.270Z,18.83
2016-07-26T02:13:19.243Z,18.71
2016-07-26T02:14:19.224Z,18.8
2016-07-26T02:15:19.202Z,18.83
2016-07-26T02:16:19.185Z,18.8
2016-07-26T02:17:19.166Z,18.89
2016-07-26T02:18:19.149Z,18.84
2016-07-26T02:19:19.128Z,18.88
2016-07-26T02:20:19.108Z,18.92
2016-07-26T02:21:19.089Z,18.93
2016-07-26T02:22:19.073Z,18.88
2016-07-26T02:23:19.052Z,18.95
2016-07-26T02:24:19.033Z,19.02
2016-07-26T02:25:19.014Z,19
2016-07-26T02:26:18.994Z,19
2016-07-26T02:27:18.976Z,19.07
2016-07-26T02:28:18.958Z,19.02
2016-07-26T02:29:18.940Z,19.08
2016-07-26T02:30:18.925Z,19.12
2016-07-26T02:31:18.907Z,19.12
2016-07-26T02:32:18.882Z,19.08
2016-07-26T02:33:18.870Z,19.12
2016-07-26T02:34:18.847Z,19.12
2016-07-26T02:35:18.827Z,19.19
2016-07-26T02:36:18.804Z,19.09
2016-07-26T02:37:18.792Z,19.18
2016-07-26T02:38:18.769Z,19.18
2016-07-26T02:39:18.756Z,19.19
2016-07-26T02:40:18.734Z,19.16
2016-07-26T02:41:18.719Z,19.19
2016-07-26T02:42:18.701Z,19.19
2016-07-26T02:43:18.679Z,19.26
2016-07-26T02:44:18.660Z,19.24
2016-07-26T02:45:18.643Z,19.22
2016-07-26T02:46:18.620Z,19.26
2016-07-26T02:47:18.612Z,19.19
2016-07-26T02:48:18.582Z,19.16
2016-07-26T02:49:18.569Z,19.18
2016-07-26T02:50:18.556Z,19.24
2016-07-26T02:51:18.534Z,19.29
2016-07-26T02:52:18.515Z,19.29
2016-07-26T02:53:18.494Z,19.3
2016-07-26T02:54:18.473Z,19.14
2016-07-26T02:55:18.457Z,19.27
2016-07-26T02:56:18.439Z,19.3
2016-07-26T02:57:18.420Z,19.27
2016-07-26T02:58:18.401Z,19.24
2016-07-26T02:59:18.385Z,19.31
2016-07-26T03:00:18.363Z,19.29
2016-07-26T03:01:18.345Z,19.34
2016-07-26T03:02:18.326Z,19.29
2016-07-26T03:03:18.308Z,19.24
2016-07-26T03:05:18.267Z,19.29
2016-07-26T03:06:18.252Z,19.3
2016-07-26T03:07:18.237Z,19.27
2016-07-26T03:08:18.214Z,19.29
2016-07-26T03:09:18.193Z,19.27
2016-07-26T03:10:18.190Z,19.21
2016-07-26T03:11:18.159Z,19.22
2016-07-26T03:12:18.141Z,19.21
2016-07-26T03:13:18.123Z,19.18
2016-07-26T03:14:18.107Z,19.18
2016-07-26T03:15:18.084Z,19.24
2016-07-26T03:16:18.066Z,19.24
2016-07-26T03:17:18.046Z,19.15
2016-07-26T03:18:18.028Z,19.14
2016-07-26T03:20:17.995Z,19.04
2016-07-26T03:21:17.974Z,19.11
2016-07-26T03:22:17.955Z,19.08
2016-07-26T03:23:17.933Z,19.15
2016-07-26T03:24:17.915Z,19.11
2016-07-26T03:25:17.898Z,18.99
2016-07-26T03:26:17.880Z,19.16
2016-07-26T03:27:17.859Z,19.04
2016-07-26T03:28:17.839Z,19.04
2016-07-26T03:29:17.823Z,19.08
2016-07-26T03:30:17.798Z,19.09
2016-07-26T03:31:17.789Z,19.02
2016-07-26T03:32:17.770Z,18.95
2016-07-26T03:33:17.746Z,18.99
2016-07-26T03:35:17.709Z,19.02
2016-07-26T03:36:17.692Z,18.95
2016-07-26T03:37:17.672Z,18.98
2016-07-26T03:38:17.654Z,18.84
2016-07-26T03:39:17.633Z,18.95
2016-07-26T03:40:17.612Z,18.93
2016-07-26T03:41:17.598Z,18.95
2016-07-26T03:42:17.578Z,18.98
2016-07-26T03:43:17.558Z,18.89
2016-07-26T03:44:17.539Z,18.86
2016-07-26T03:45:17.517Z,18.95
2016-07-26T03:46:17.502Z,18.9
2016-07-26T03:47:17.483Z,19
2016-07-26T03:48:17.462Z,18.98
2016-07-26T03:50:17.426Z,19
2016-07-26T03:51:17.407Z,18.96
2016-07-26T03:52:17.387Z,19
2016-07-26T03:53:17.370Z,18.95
2016-07-26T03:54:17.353Z,18.95
2016-07-26T03:55:17.328Z,18.99
2016-07-26T03:56:17.326Z,19.02
2016-07-26T03:57:17.298Z,18.99
2016-07-26T03:58:17.275Z,18.96
2016-07-26T03:59:17.255Z,19.02
2016-07-26T04:00:17.233Z,19
2016-07-26T04:01:17.218Z,18.98
2016-07-26T04:02:17.196Z,18.95
2016-07-26T04:03:17.178Z,18.95
2016-07-26T04:05:17.140Z,19.02
2016-07-26T04:06:17.127Z,19.12
2016-07-26T04:07:17.101Z,19.02
2016-07-26T04:08:17.102Z,19.08
2016-07-26T04:09:17.069Z,19.15
2016-07-26T04:10:17.052Z,19.12
2016-07-26T04:11:17.028Z,19.09
2016-07-26T04:12:17.015Z,19.18
2016-07-26T04:13:16.994Z,19.15
2016-07-26T04:14:16.974Z,19.21
2016-07-26T04:15:16.959Z,19.18
2016-07-26T04:16:16.938Z,19.24
2016-07-26T04:17:16.915Z,19.24
2016-07-26T04:18:16.906Z,19.18
2016-07-26T04:19:16.877Z,19.21
2016-07-26T04:20:16.865Z,19.21
2016-07-26T04:21:16.843Z,19.27
2016-07-26T04:22:16.827Z,19.29
2016-07-26T04:23:16.808Z,19.24
2016-07-26T04:24:16.789Z,19.22
2016-07-26T04:25:16.771Z,19.29
2016-07-26T04:26:16.754Z,19.33
2016-07-26T04:27:16.733Z,19.27
2016-07-26T04:28:16.716Z,19.29
2016-07-26T04:29:16.696Z,19.29
2016-07-26T04:30:16.677Z,19.33
2016-07-26T04:31:16.660Z,19.31
2016-07-26T04:32:16.640Z,19.29
2016-07-26T04:33:16.624Z,19.29
2016-07-26T04:34:16.602Z,19.36
2016-07-26T04:35:16.591Z,19.39
2016-07-26T04:36:16.567Z,19.37
2016-07-26T04:37:16.547Z,19.41
2016-07-26T04:38:16.531Z,19.47
2016-07-26T04:39:16.514Z,19.37
2016-07-26T04:40:16.490Z,19.48
2016-07-26T04:41:16.476Z,19.37
2016-07-26T04:42:16.456Z,19.47
2016-07-26T04:43:16.440Z,19.47
2016-07-26T04:44:16.420Z,19.52
2016-07-26T04:45:16.410Z,19.49
2016-07-26T04:46:16.383Z,19.49
2016-07-26T04:47:16.367Z,19.48
2016-07-26T04:48:16.346Z,19.56
2016-07-26T04:49:16.332Z,19.67
2016-07-26T04:50:16.310Z,19.69
2016-07-26T04:51:16.308Z,19.66
2016-07-26T04:52:16.276Z,19.73
2016-07-26T04:53:16.263Z,19.7
2016-07-26T04:54:16.241Z,19.73
2016-07-26T04:55:16.225Z,19.67
2016-07-26T04:56:16.207Z,19.69
2016-07-26T04:57:16.187Z,19.71
2016-07-26T04:58:16.172Z,19.71
2016-07-26T04:59:16.151Z,19.79
2016-07-26T05:00:16.135Z,19.81
2016-07-26T05:01:16.118Z,19.74
2016-07-26T05:02:16.098Z,19.71
2016-07-26T05:03:16.084Z,19.92
2016-07-26T05:04:16.063Z,19.74
2016-07-26T05:05:16.044Z,19.79
2016-07-26T05:06:16.034Z,19.86
2016-07-26T05:07:16.013Z,19.85
2016-07-26T05:08:15.992Z,19.89
2016-07-26T05:09:15.969Z,19.95
2016-07-26T05:10:15.958Z,20
2016-07-26T05:11:15.939Z,19.94
2016-07-26T05:12:15.923Z,20.03
2016-07-26T05:13:15.906Z,19.96
2016-07-26T05:14:15.882Z,19.96
2016-07-26T05:15:16.140Z,19.95
2016-07-26T05:16:15.847Z,19.99
2016-07-26T05:17:15.834Z,20.02
2016-07-26T05:18:15.816Z,20
2016-07-26T05:19:15.796Z,19.96
2016-07-26T05:20:15.784Z,20
2016-07-26T05:21:15.763Z,19.92
2016-07-26T05:22:16.011Z,20.02
2016-07-26T05:23:15.724Z,20.02
2016-07-26T05:24:15.709Z,20.02
2016-07-26T05:25:15.744Z,20.02
2016-07-26T05:26:15.674Z,20.1
2016-07-26T05:27:15.671Z,20.03
2016-07-26T05:28:15.641Z,20.02
2016-07-26T05:29:15.620Z,20.02
2016-07-26T05:30:15.605Z,20.04
2016-07-26T05:31:15.589Z,19.96
2016-07-26T05:32:15.570Z,19.95
2016-07-26T05:33:15.555Z,20.02
2016-07-26T05:34:15.537Z,19.95
2016-07-26T05:35:15.530Z,20.02
2016-07-26T05:36:15.500Z,20.06
2016-07-26T05:37:15.488Z,20.06
2016-07-26T05:38:15.469Z,20.03
2016-07-26T05:39:15.455Z,20.11
2016-07-26T05:40:15.657Z,20.14
2016-07-26T05:41:15.687Z,20.19
2016-07-26T05:42:16.233Z,20.18
2016-07-26T05:43:15.940Z,20.21
2016-07-26T05:44:16.158Z,20.19
2016-07-26T05:45:15.348Z,20.18
2016-07-26T05:46:15.333Z,20.24
2016-07-26T05:47:15.324Z,20.31
2016-07-26T05:48:15.303Z,20.29
2016-07-26T05:49:15.289Z,20.39
2016-07-26T05:50:15.270Z,20.39
2016-07-26T05:51:15.266Z,20.52
2016-07-26T05:52:15.401Z,20.44
2016-07-26T05:53:15.218Z,20.5
2016-07-26T05:54:15.202Z,20.56
2016-07-26T05:55:15.188Z,20.67
2016-07-26T05:56:15.174Z,20.74
2016-07-26T05:57:15.153Z,20.7
2016-07-26T05:58:15.140Z,20.9
2016-07-26T05:59:15.123Z,20.93
2016-07-26T06:00:15.109Z,20.96
2016-07-26T06:01:15.095Z,20.92
2016-07-26T06:02:15.084Z,20.99
2016-07-26T06:03:15.400Z,21.07
2016-07-26T06:04:15.134Z,21.09
2016-07-26T06:05:15.030Z,21.17
2016-07-26T06:06:15.017Z,21.2
2016-07-26T06:07:15.009Z,21.17
2016-07-26T06:08:14.988Z,21.21
2016-07-26T06:09:14.970Z,21.25
2016-07-26T06:10:15.179Z,21.25
2016-07-26T06:11:14.987Z,21.45
2016-07-26T06:12:14.989Z,21.43
2016-07-26T06:13:14.910Z,21.58
2016-07-26T06:14:14.892Z,21.61
2016-07-26T06:15:15.019Z,21.67
2016-07-26T06:16:14.871Z,21.77
2016-07-26T06:17:14.852Z,21.85
2016-07-26T06:18:16.648Z,21.93
2016-07-26T06:19:14.820Z,22.06
2016-07-26T06:20:14.806Z,22
2016-07-26T06:21:14.793Z,22
2016-07-26T06:22:14.793Z,21.99
2016-07-26T06:23:14.761Z,22.04
2016-07-26T06:24:14.777Z,22.1
2016-07-26T06:25:15.031Z,22.15
2016-07-26T06:26:15.064Z,22.15
2016-07-26T06:27:15.514Z,22.14
2016-07-26T06:28:15.290Z,22.28
2016-07-26T06:29:15.266Z,22.3
2016-07-26T06:30:14.941Z,22.45
2016-07-26T06:31:14.910Z,22.35
2016-07-26T06:32:14.897Z,22.47
2016-07-26T06:33:14.848Z,22.47
2016-07-26T06:34:14.872Z,22.53
2016-07-26T06:35:14.894Z,22.45
2016-07-26T06:36:14.903Z,22.6
2016-07-26T06:37:14.829Z,22.7
2016-07-26T06:38:14.746Z,22.83
2016-07-26T06:39:14.805Z,22.87
2016-07-26T06:40:14.527Z,23
2016-07-26T06:41:14.526Z,23.18
2016-07-26T06:42:14.941Z,23.2
2016-07-26T06:43:14.978Z,23.25
2016-07-26T06:44:14.831Z,23.27
2016-07-26T06:45:15.011Z,23.32
2016-07-26T06:46:14.884Z,23.32
2016-07-26T06:47:14.469Z,23.27
2016-07-26T06:48:14.813Z,23.25
2016-07-26T06:49:15.972Z,23.25
2016-07-26T06:50:14.730Z,23.36
2016-07-26T06:51:14.748Z,23.36
2016-07-26T06:52:15.765Z,23.41
2016-07-26T06:53:14.653Z,23.41
2016-07-26T06:54:14.961Z,23.43
2016-07-26T06:55:14.665Z,23.46
2016-07-26T06:56:14.426Z,23.5
2016-07-26T06:57:14.989Z,23.54
2016-07-26T06:58:15.607Z,23.61
2016-07-26T06:59:14.521Z,23.56
2016-07-26T07:00:16.438Z,23.48
2016-07-26T07:01:14.673Z,23.47
2016-07-26T07:02:15.357Z,23.56
2016-07-26T07:03:15.619Z,23.59
2016-07-26T07:04:14.986Z,23.58
2016-07-26T07:05:15.350Z,23.69
2016-07-26T07:06:14.922Z,23.58
2016-07-26T07:07:15.564Z,23.63
2016-07-26T07:08:16.244Z,23.74
2016-07-26T07:09:15.369Z,23.76
2016-07-26T07:10:15.394Z,23.76
2016-07-26T07:11:15.372Z,23.88
2016-07-26T07:12:14.892Z,23.86
2016-07-26T07:13:15.546Z,23.91
2016-07-26T07:14:15.747Z,23.8
2016-07-26T07:15:16.067Z,23.81
2016-07-26T07:16:15.348Z,23.84
2016-07-26T07:17:16.120Z,23.91
2016-07-26T07:18:15.720Z,23.83
2016-07-26T07:19:15.330Z,23.71
2016-07-26T07:20:16.239Z,23.68
2016-07-26T07:21:15.309Z,23.77
2016-07-26T07:22:15.175Z,23.77
2016-07-26T07:23:15.478Z,23.74
2016-07-26T07:24:15.680Z,23.84
2016-07-26T07:25:16.637Z,23.71
2016-07-26T07:26:15.584Z,23.66
2016-07-26T07:27:15.442Z,23.63
2016-07-26T07:28:15.795Z,23.62
2016-07-26T07:29:15.470Z,23.51
2016-07-26T07:30:15.343Z,23.44
2016-07-26T07:31:15.325Z,23.28
2016-07-26T07:32:15.408Z,23.31
2016-07-26T07:33:15.406Z,23.24
2016-07-26T07:34:15.322Z,23.12
2016-07-26T07:35:15.508Z,23.28
2016-07-26T07:36:15.736Z,23.15
2016-07-26T07:37:15.385Z,23.1
2016-07-26T07:38:15.613Z,23
2016-07-26T07:39:15.335Z,22.99
2016-07-26T07:40:15.112Z,23.02
2016-07-26T07:41:15.129Z,23.06
2016-07-26T07:42:15.109Z,23
2016-07-26T07:43:15.496Z,23
2016-07-26T07:44:14.959Z,23.02
2016-07-26T07:45:15.237Z,22.87
2016-07-26T07:46:14.284Z,22.85
2016-07-26T07:47:14.714Z,22.91
2016-07-26T07:48:14.646Z,23
2016-07-26T07:49:14.508Z,22.88
2016-07-26T07:50:14.526Z,22.87
2016-07-26T07:51:14.512Z,22.9
2016-07-26T07:52:13.977Z,22.98
2016-07-26T07:53:14.184Z,23
2016-07-26T07:54:14.547Z,23.05
2016-07-26T07:55:14.797Z,23.05
2016-07-26T07:56:14.120Z,22.88
2016-07-26T07:57:14.922Z,22.88
2016-07-26T07:58:14.639Z,22.98
2016-07-26T07:59:14.268Z,22.99
2016-07-26T08:00:14.807Z,23.05
2016-07-26T08:01:14.732Z,23.03
2016-07-26T08:02:14.908Z,23.18
2016-07-26T08:03:14.639Z,23.12
2016-07-26T08:04:14.773Z,23.27
2016-07-26T08:05:14.470Z,23.32
2016-07-26T08:06:14.390Z,23.41
2016-07-26T08:07:15.401Z,23.39
2016-07-26T08:08:14.370Z,23.41
2016-07-26T08:09:14.580Z,23.39
2016-07-26T08:10:14.053Z,23.41
2016-07-26T08:11:14.690Z,23.41
2016-07-26T08:12:14.218Z,23.44
2016-07-26T08:13:14.076Z,23.39
2016-07-26T08:14:13.689Z,23.39
2016-07-26T08:15:14.522Z,23.39
2016-07-26T08:16:13.542Z,23.4
2016-07-26T08:17:14.015Z,23.28
2016-07-26T08:18:13.632Z,23.31
2016-07-26T08:19:13.624Z,23.34
2016-07-26T08:20:13.989Z,23.21
2016-07-26T08:21:14.967Z,23.21
2016-07-26T08:22:13.882Z,23.17
2016-07-26T08:23:13.707Z,23.18
2016-07-26T08:24:14.103Z,23.15
2016-07-26T08:25:14.176Z,23.21
2016-07-26T08:26:13.521Z,23.28
2016-07-26T08:27:13.212Z,23.21
2016-07-26T08:28:14.225Z,23.17
2016-07-26T08:29:13.737Z,23.28
2016-07-26T08:30:13.702Z,23.23
2016-07-26T08:31:13.710Z,23.32
2016-07-26T08:32:14.143Z,23.31
2016-07-26T08:33:14.694Z,23.43
2016-07-26T08:34:14.700Z,23.59
2016-07-26T08:35:13.404Z,23.55
2016-07-26T08:36:13.294Z,23.69
2016-07-26T08:37:13.164Z,23.66
2016-07-26T08:38:12.995Z,23.69
2016-07-26T08:39:13.924Z,23.56
2016-07-26T08:40:13.108Z,23.66
2016-07-26T08:41:13.292Z,23.55
2016-07-26T08:42:12.947Z,23.58
2016-07-26T08:43:12.941Z,23.56
2016-07-26T08:44:13.862Z,23.56
2016-07-26T08:45:14.054Z,23.59
2016-07-26T08:46:13.603Z,23.65
2016-07-26T08:47:14.138Z,23.55
2016-07-26T08:48:14.903Z,23.61
2016-07-26T08:49:13.732Z,23.65
2016-07-26T08:50:13.053Z,23.77
2016-07-26T08:51:13.305Z,23.74
2016-07-26T08:52:13.280Z,23.74
2016-07-26T08:53:13.008Z,23.68
2016-07-26T08:54:15.549Z,23.78
2016-07-26T08:55:46.367Z,23.92
2016-07-26T08:56:15.268Z,23.83
2016-07-26T08:57:15.121Z,24.02
2016-07-26T08:58:15.009Z,24.26
2016-07-26T08:59:16.255Z,24.47
2016-07-26T09:00:14.871Z,24.54
2016-07-26T09:01:15.004Z,24.76
2016-07-26T09:02:14.788Z,24.85
2016-07-26T09:03:14.301Z,24.91
2016-07-26T09:04:13.283Z,24.91
2016-07-26T09:05:13.822Z,24.99
2016-07-26T09:06:13.683Z,24.99
2016-07-26T09:07:12.882Z,25.07
2016-07-26T09:08:12.912Z,25.21
2016-07-26T09:09:12.741Z,25.21
2016-07-26T09:10:14.465Z,25.29
2016-07-26T09:11:14.274Z,25.32
2016-07-26T09:12:13.763Z,25.29
2016-07-26T09:13:13.189Z,25.38
2016-07-26T09:14:13.144Z,25.44
2016-07-26T09:15:13.557Z,25.5
2016-07-26T09:16:12.857Z,25.55
2016-07-26T09:17:13.066Z,25.58
2016-07-26T09:18:14.472Z,25.5
2016-07-26T09:19:12.818Z,25.36
2016-07-26T09:20:13.559Z,25.23
2016-07-26T09:21:12.516Z,25.22
2016-07-26T09:22:14.098Z,25.08
2016-07-26T09:23:14.594Z,25.16
2016-07-26T09:24:14.415Z,25.21
2016-07-26T09:25:13.398Z,25.33
2016-07-26T09:26:15.237Z,25.47
2016-07-26T09:27:14.518Z,25.63
2016-07-26T09:28:13.105Z,25.77
2016-07-26T09:29:13.336Z,25.73
2016-07-26T09:30:13.489Z,25.54
2016-07-26T09:31:13.501Z,25.51
2016-07-26T09:32:14.370Z,25.5
2016-07-26T09:33:14.913Z,25.58
2016-07-26T09:34:13.448Z,25.68
2016-07-26T09:35:13.846Z,25.84
2016-07-26T09:36:15.311Z,25.78
2016-07-26T09:37:13.474Z,25.91
2016-07-26T09:38:13.708Z,25.83
2016-07-26T09:39:13.497Z,25.93
2016-07-26T09:40:13.710Z,25.93
2016-07-26T09:41:13.171Z,25.87
2016-07-26T09:42:13.465Z,25.98
2016-07-26T09:43:13.263Z,25.95
2016-07-26T09:44:13.521Z,26.18
2016-07-26T09:45:13.125Z,26.26
2016-07-26T09:46:14.118Z,26.4
2016-07-26T09:47:12.700Z,26.53
2016-07-26T09:48:13.252Z,26.51
2016-07-26T09:49:13.694Z,26.58
2016-07-26T09:50:12.396Z,26.6
2016-07-26T09:51:13.019Z,26.62
2016-07-26T09:52:13.243Z,26.71
2016-07-26T09:53:12.806Z,26.71
2016-07-26T09:54:12.477Z,26.65
2016-07-26T09:55:12.195Z,26.8
2016-07-26T09:56:12.182Z,26.83
2016-07-26T09:57:12.180Z,26.8
2016-07-26T09:58:12.278Z,26.74
2016-07-26T09:59:12.164Z,26.88
2016-07-26T10:00:12.152Z,27.08
2016-07-26T10:01:12.180Z,27.12
2016-07-26T10:02:12.492Z,27.52
2016-07-26T10:03:12.824Z,27.71
2016-07-26T10:04:12.450Z,28
2016-07-26T10:05:12.600Z,28.22
2016-07-26T10:06:12.163Z,28.49
2016-07-26T10:07:12.793Z,28.42
2016-07-26T10:08:12.370Z,28.39
2016-07-26T10:09:12.092Z,28.42
2016-07-26T10:10:12.358Z,28.47
2016-07-26T10:11:12.568Z,28.51
2016-07-26T10:12:12.985Z,28.38
2016-07-26T10:13:12.152Z,28.29
2016-07-26T10:14:12.341Z,28.17
2016-07-26T10:15:13.436Z,27.96
2016-07-26T10:16:12.583Z,27.77
2016-07-26T10:17:12.339Z,27.65
2016-07-26T10:18:12.793Z,27.58
2016-07-26T10:19:13.092Z,27.37
2016-07-26T10:20:12.813Z,27.25
2016-07-26T10:21:12.482Z,27.21
2016-07-26T10:22:13.130Z,27.15
2016-07-26T10:23:12.458Z,27.14
2016-07-26T10:24:12.431Z,27.17
2016-07-26T10:25:12.349Z,27.12
2016-07-26T10:26:13.270Z,26.96
2016-07-26T10:27:12.431Z,26.85
2016-07-26T10:28:12.396Z,26.9
2016-07-26T10:29:11.969Z,26.92
2016-07-26T10:30:12.227Z,26.95
2016-07-26T10:31:12.177Z,26.97
2016-07-26T10:32:13.090Z,27.05
2016-07-26T10:33:12.393Z,27.05
2016-07-26T10:34:12.143Z,26.9
2016-07-26T10:35:12.115Z,26.89
2016-07-26T10:36:11.914Z,26.83
2016-07-26T10:37:11.903Z,26.85
2016-07-26T10:38:11.905Z,26.84
2016-07-26T10:39:11.888Z,26.84
2016-07-26T10:40:12.024Z,26.63
2016-07-26T10:41:12.132Z,26.55
2016-07-26T10:42:11.859Z,26.63
2016-07-26T10:43:12.751Z,26.71
2016-07-26T10:44:12.041Z,26.81
2016-07-26T10:45:12.182Z,26.99
2016-07-26T10:46:11.821Z,27.15
2016-07-26T10:47:12.531Z,27.39
2016-07-26T10:48:12.568Z,27.65
2016-07-26T10:49:12.526Z,27.78
2016-07-26T10:50:12.014Z,27.7
2016-07-26T10:51:12.798Z,27.55
2016-07-26T10:52:12.169Z,27.51
2016-07-26T10:53:11.934Z,27.52
2016-07-26T10:54:12.417Z,27.71
2016-07-26T10:55:12.652Z,27.63
2016-07-26T10:56:12.625Z,27.67
2016-07-26T10:57:12.089Z,27.78
2016-07-26T10:58:11.798Z,27.82
2016-07-26T10:59:11.739Z,27.73
2016-07-26T11:00:11.727Z,27.71
2016-07-26T11:01:11.876Z,27.55
2016-07-26T11:02:11.766Z,27.6
2016-07-26T11:03:12.215Z,27.54
2016-07-26T11:04:11.921Z,27.64
2016-07-26T11:05:11.849Z,27.8
2016-07-26T11:06:12.699Z,27.87
2016-07-26T11:07:11.851Z,28
2016-07-26T11:08:12.010Z,28.29
2016-07-26T11:09:12.789Z,28.42
2016-07-26T11:10:12.508Z,28.67
2016-07-26T11:11:11.761Z,28.76
2016-07-26T11:12:12.703Z,28.67
2016-07-26T11:13:12.701Z,28.7
2016-07-26T11:14:11.753Z,28.67
2016-07-26T11:15:11.917Z,28.76
2016-07-26T11:16:11.638Z,28.91
2016-07-26T11:17:11.704Z,29.19
2016-07-26T11:18:11.628Z,29.41
2016-07-26T11:19:12.876Z,29.5
2016-07-26T11:21:11.899Z,29.71
2016-07-26T11:22:11.726Z,29.57
2016-07-26T11:23:11.685Z,29.5
2016-07-26T11:24:11.828Z,29.5
2016-07-26T11:25:11.602Z,29.51
2016-07-26T11:26:11.785Z,29.45
2016-07-26T11:27:11.841Z,29.5
2016-07-26T11:28:11.641Z,29.5
2016-07-26T11:29:11.824Z,29.6
2016-07-26T11:30:11.710Z,29.63
2016-07-26T11:31:11.586Z,29.78
2016-07-26T11:32:11.684Z,29.86
2016-07-26T11:33:12.476Z,30.16
2016-07-26T11:34:11.655Z,30.37
2016-07-26T11:35:11.960Z,30.61
2016-07-26T11:36:11.752Z,30.5
2016-07-26T11:38:11.824Z,30.8
2016-07-26T11:39:12.381Z,30.84
2016-07-26T11:40:11.552Z,30.94
2016-07-26T11:41:11.554Z,30.87
2016-07-26T11:42:11.549Z,30.75
2016-07-26T11:43:11.544Z,30.75
2016-07-26T11:44:11.538Z,30.88
2016-07-26T11:45:11.753Z,31.02
2016-07-26T11:46:11.532Z,31.27
2016-07-26T11:47:11.537Z,31.42
2016-07-26T11:48:11.527Z,31.64
2016-07-26T11:49:11.526Z,31.78
2016-07-26T11:50:11.582Z,31.78
2016-07-26T11:51:12.423Z,31.89
2016-07-26T11:52:11.521Z,32.07
2016-07-26T11:53:11.520Z,31.96
2016-07-26T11:54:11.516Z,31.89
2016-07-26T11:55:11.567Z,31.56
2016-07-26T11:56:11.512Z,31.22
2016-07-26T11:57:11.529Z,31
2016-07-26T11:58:12.128Z,30.87
2016-07-26T11:59:11.500Z,30.61
2016-07-26T12:00:11.564Z,30.54
2016-07-26T12:01:11.602Z,30.65
2016-07-26T12:02:11.490Z,30.81
2016-07-26T12:03:11.567Z,31
2016-07-26T12:04:11.483Z,31.25
2016-07-26T12:05:12.713Z,31.33
2016-07-26T12:06:11.731Z,31.58
2016-07-26T12:07:12.779Z,31.76
2016-07-26T12:08:11.743Z,31.73
2016-07-26T12:09:12.315Z,31.8
2016-07-26T12:10:11.725Z,31.87
2016-07-26T12:11:12.095Z,32.08
2016-07-26T12:12:12.228Z,32.12
2016-07-26T12:13:11.475Z,32.27
2016-07-26T12:14:11.630Z,32.3
2016-07-26T12:15:11.749Z,32.31
2016-07-26T12:16:12.886Z,32.26
2016-07-26T12:17:12.610Z,32.29
2016-07-26T12:18:11.510Z,32.38
2016-07-26T12:19:12.009Z,32.48
2016-07-26T12:20:12.537Z,32.22
2016-07-26T12:21:11.495Z,31.9
2016-07-26T12:22:11.762Z,31.66
2016-07-26T12:23:11.616Z,31.51
2016-07-26T12:24:12.126Z,31.44
2016-07-26T12:25:11.733Z,31.43
2016-07-26T12:26:12.460Z,31.42
2016-07-26T12:27:12.024Z,31.34
2016-07-26T12:28:12.113Z,31.17
2016-07-26T12:29:11.674Z,30.99
2016-07-26T12:30:11.967Z,31.07
2016-07-26T12:31:11.411Z,31.03
2016-07-26T12:32:11.409Z,30.94
2016-07-26T12:33:11.402Z,30.84
2016-07-26T12:34:11.400Z,30.72
2016-07-26T12:35:11.396Z,30.54
2016-07-26T12:36:11.909Z,30.4
2016-07-26T12:37:11.385Z,30.32
2016-07-26T12:38:11.489Z,30.31
2016-07-26T12:39:11.653Z,30.48
2016-07-26T12:40:11.515Z,30.47
2016-07-26T12:41:11.427Z,30.53
2016-07-26T12:42:12.514Z,30.35
2016-07-26T12:43:11.353Z,30.18
2016-07-26T12:44:11.410Z,29.95
2016-07-26T12:45:11.463Z,29.86
2016-07-26T12:46:11.365Z,29.65
2016-07-26T12:47:12.558Z,29.57
2016-07-26T12:48:12.014Z,29.63
2016-07-26T12:49:11.875Z,29.53
2016-07-26T12:50:11.318Z,29.44
2016-07-26T12:51:11.307Z,29.19
2016-07-26T12:52:11.505Z,29.16
2016-07-26T12:53:11.302Z,29.05
2016-07-26T12:54:11.348Z,28.81
2016-07-26T12:55:11.431Z,28.75
2016-07-26T12:56:11.271Z,28.69
2016-07-26T12:57:11.263Z,28.54
2016-07-26T12:58:11.256Z,28.57
2016-07-26T12:59:11.526Z,28.69
2016-07-26T13:00:11.996Z,28.59
2016-07-26T13:01:11.238Z,28.41
2016-07-26T13:02:11.226Z,28.15
2016-07-26T13:03:11.209Z,28.1